sensor_id;sensor_type;location;lat;lon;timestamp;temperature;humidity
44117;DHT22;29781;49.480;8.512;2023-03-01T00:00:10;1.00;99.90
44117;DHT22;29781;49.480;8.512;2023-03-01T00:02:36;1.00;99.90
44117;DHT22;29781;49.480;8.512;2023-03-01T00:05:02;1.20;99.90
44117;DHT22;29781;49.480;8.512;2023-03-01T00:07:27;1.30;99.90
44117;DHT22;29781;49.480;8.512;2023-03-01T00:09:53;1.30;99.90
44117;DHT22;29781;49.480;8.512;2023-03-01T00:12:19;1.20;99.90
44117;DHT22;29781;49.480;8.512;2023-03-01T00:14:44;1.20;99.90
44117;DHT22;29781;49.480;8.512;2023-03-01T00:17:10;1.30;99.90
44117;DHT22;29781;49.480;8.512;2023-03-01T00:19:35;1.30;99.90
44117;DHT22;29781;49.480;8.512;2023-03-01T00:22:01;1.30;99.90
44117;DHT22;29781;49.480;8.512;2023-03-01T00:24:26;1.50;99.90
44117;DHT22;29781;49.480;8.512;2023-03-01T00:26:53;1.30;99.90
44117;DHT22;29781;49.480;8.512;2023-03-01T00:29:18;1.10;99.90
44117;DHT22;29781;49.480;8.512;2023-03-01T00:31:44;1.20;99.90
44117;DHT22;29781;49.480;8.512;2023-03-01T00:34:09;1.30;99.90
44117;DHT22;29781;49.480;8.512;2023-03-01T00:36:35;1.30;99.90
44117;DHT22;29781;49.480;8.512;2023-03-01T00:39:02;1.30;99.90
44117;DHT22;29781;49.480;8.512;2023-03-01T00:41:28;1.10;99.90
44117;DHT22;29781;49.480;8.512;2023-03-01T00:43:53;1.00;99.90
44117;DHT22;29781;49.480;8.512;2023-03-01T00:46:20;0.80;99.90
44117;DHT22;29781;49.480;8.512;2023-03-01T00:48:45;0.70;99.90
44117;DHT22;29781;49.480;8.512;2023-03-01T00:51:13;0.60;99.90
44117;DHT22;29781;49.480;8.512;2023-03-01T00:53:39;0.60;99.90
44117;DHT22;29781;49.480;8.512;2023-03-01T00:56:05;0.60;99.90
44117;DHT22;29781;49.480;8.512;2023-03-01T00:58:31;0.60;99.90
44117;DHT22;29781;49.480;8.512;2023-03-01T01:00:57;0.70;99.90
44117;DHT22;29781;49.480;8.512;2023-03-01T01:03:23;0.80;99.90
44117;DHT22;29781;49.480;8.512;2023-03-01T01:05:53;0.90;99.90
44117;DHT22;29781;49.480;8.512;2023-03-01T01:08:19;0.90;99.90
44117;DHT22;29781;49.480;8.512;2023-03-01T01:10:45;1.00;99.90
44117;DHT22;29781;49.480;8.512;2023-03-01T01:13:11;1.00;99.90
44117;DHT22;29781;49.480;8.512;2023-03-01T01:15:36;0.80;99.90
44117;DHT22;29781;49.480;8.512;2023-03-01T01:18:02;0.60;99.90
44117;DHT22;29781;49.480;8.512;2023-03-01T01:20:27;0.50;99.90
44117;DHT22;29781;49.480;8.512;2023-03-01T01:22:53;0.50;99.90
44117;DHT22;29781;49.480;8.512;2023-03-01T01:25:18;0.50;99.90
44117;DHT22;29781;49.480;8.512;2023-03-01T01:27:44;0.40;99.90
44117;DHT22;29781;49.480;8.512;2023-03-01T01:30:10;0.30;99.90
44117;DHT22;29781;49.480;8.512;2023-03-01T01:32:35;0.30;99.90
44117;DHT22;29781;49.480;8.512;2023-03-01T01:35:01;0.20;99.90
44117;DHT22;29781;49.480;8.512;2023-03-01T01:37:26;0.20;99.90
44117;DHT22;29781;49.480;8.512;2023-03-01T01:39:57;0.20;99.90
44117;DHT22;29781;49.480;8.512;2023-03-01T01:42:23;0.30;99.90
44117;DHT22;29781;49.480;8.512;2023-03-01T01:45:15;0.30;99.90
44117;DHT22;29781;49.480;8.512;2023-03-01T01:47:34;0.40;99.90
44117;DHT22;29781;49.480;8.512;2023-03-01T01:49:59;0.50;99.90
44117;DHT22;29781;49.480;8.512;2023-03-01T01:52:26;0.50;99.90
44117;DHT22;29781;49.480;8.512;2023-03-01T01:57:32;0.60;99.90
44117;DHT22;29781;49.480;8.512;2023-03-01T02:00:04;0.70;99.90
44117;DHT22;29781;49.480;8.512;2023-03-01T02:02:30;0.60;99.90
44117;DHT22;29781;49.480;8.512;2023-03-01T02:05:20;0.60;99.90
44117;DHT22;29781;49.480;8.512;2023-03-01T02:07:41;0.50;99.90
44117;DHT22;29781;49.480;8.512;2023-03-01T02:10:08;0.40;99.90
44117;DHT22;29781;49.480;8.512;2023-03-01T02:12:33;0.40;99.90
44117;DHT22;29781;49.480;8.512;2023-03-01T02:14:59;0.20;99.90
44117;DHT22;29781;49.480;8.512;2023-03-01T02:17:24;0.30;99.90
44117;DHT22;29781;49.480;8.512;2023-03-01T02:27:15;-0.20;99.90
44117;DHT22;29781;49.480;8.512;2023-03-01T02:29:42;-0.10;99.90
44117;DHT22;29781;49.480;8.512;2023-03-01T02:32:09;-0.20;99.90
44117;DHT22;29781;49.480;8.512;2023-03-01T02:34:36;-0.10;99.90
44117;DHT22;29781;49.480;8.512;2023-03-01T02:37:07;0.00;99.90
44117;DHT22;29781;49.480;8.512;2023-03-01T02:39:39;0.10;99.90
44117;DHT22;29781;49.480;8.512;2023-03-01T02:42:07;0.30;99.90
44117;DHT22;29781;49.480;8.512;2023-03-01T02:44:35;0.30;99.90
44117;DHT22;29781;49.480;8.512;2023-03-01T02:47:00;0.40;99.90
44117;DHT22;29781;49.480;8.512;2023-03-01T02:49:28;0.40;99.90
44117;DHT22;29781;49.480;8.512;2023-03-01T02:54:24;0.40;99.90
44117;DHT22;29781;49.480;8.512;2023-03-01T02:56:50;0.40;99.90
44117;DHT22;29781;49.480;8.512;2023-03-01T02:59:19;0.40;99.90
44117;DHT22;29781;49.480;8.512;2023-03-01T03:01:45;0.30;99.90
44117;DHT22;29781;49.480;8.512;2023-03-01T03:04:13;0.10;99.90
44117;DHT22;29781;49.480;8.512;2023-03-01T03:06:42;0.00;99.90
44117;DHT22;29781;49.480;8.512;2023-03-01T03:09:08;-0.20;99.90
44117;DHT22;29781;49.480;8.512;2023-03-01T03:11:33;-0.20;99.90
44117;DHT22;29781;49.480;8.512;2023-03-01T03:13:59;-0.30;99.90
44117;DHT22;29781;49.480;8.512;2023-03-01T03:16:24;-0.40;99.90
44117;DHT22;29781;49.480;8.512;2023-03-01T03:18:50;-0.50;99.90
44117;DHT22;29781;49.480;8.512;2023-03-01T03:21:15;-0.50;99.90
44117;DHT22;29781;49.480;8.512;2023-03-01T03:23:41;-0.50;99.90
44117;DHT22;29781;49.480;8.512;2023-03-01T03:26:07;-0.60;99.90
44117;DHT22;29781;49.480;8.512;2023-03-01T03:28:33;-0.60;99.90
44117;DHT22;29781;49.480;8.512;2023-03-01T03:30:58;-0.50;99.90
44117;DHT22;29781;49.480;8.512;2023-03-01T03:33:29;-0.50;99.90
44117;DHT22;29781;49.480;8.512;2023-03-01T03:35:54;-0.40;99.90
44117;DHT22;29781;49.480;8.512;2023-03-01T03:38:20;-0.20;99.90
44117;DHT22;29781;49.480;8.512;2023-03-01T03:40:51;-0.10;99.90
44117;DHT22;29781;49.480;8.512;2023-03-01T03:43:18;0.00;99.90
44117;DHT22;29781;49.480;8.512;2023-03-01T03:45:44;0.10;99.90
44117;DHT22;29781;49.480;8.512;2023-03-01T03:48:10;0.30;99.90
44117;DHT22;29781;49.480;8.512;2023-03-01T03:50:36;0.20;99.90
44117;DHT22;29781;49.480;8.512;2023-03-01T03:53:02;0.80;99.90
44117;DHT22;29781;49.480;8.512;2023-03-01T03:55:28;-0.20;99.90
44117;DHT22;29781;49.480;8.512;2023-03-01T03:57:58;-0.50;99.90
44117;DHT22;29781;49.480;8.512;2023-03-01T04:00:27;-0.70;99.90
44117;DHT22;29781;49.480;8.512;2023-03-01T04:02:53;-0.90;99.90
44117;DHT22;29781;49.480;8.512;2023-03-01T04:05:21;-1.00;99.90
44117;DHT22;29781;49.480;8.512;2023-03-01T04:07:47;-1.10;99.90
44117;DHT22;29781;49.480;8.512;2023-03-01T04:10:16;-1.10;99.90
44117;DHT22;29781;49.480;8.512;2023-03-01T04:12:42;-1.10;99.90
44117;DHT22;29781;49.480;8.512;2023-03-01T04:15:11;-1.20;99.90
44117;DHT22;29781;49.480;8.512;2023-03-01T04:17:40;-1.10;99.90
44117;DHT22;29781;49.480;8.512;2023-03-01T04:20:07;-1.10;99.90
44117;DHT22;29781;49.480;8.512;2023-03-01T04:22:33;-1.10;99.90
44117;DHT22;29781;49.480;8.512;2023-03-01T04:24:58;-1.10;99.90
44117;DHT22;29781;49.480;8.512;2023-03-01T04:27:34;-1.10;99.90
44117;DHT22;29781;49.480;8.512;2023-03-01T04:29:59;-1.10;99.90
44117;DHT22;29781;49.480;8.512;2023-03-01T04:32:25;-1.00;99.90
44117;DHT22;29781;49.480;8.512;2023-03-01T04:34:50;-1.00;99.90
44117;DHT22;29781;49.480;8.512;2023-03-01T04:37:16;-0.90;99.90
44117;DHT22;29781;49.480;8.512;2023-03-01T04:39:41;-0.90;99.90
44117;DHT22;29781;49.480;8.512;2023-03-01T04:42:14;-0.80;99.90
44117;DHT22;29781;49.480;8.512;2023-03-01T04:44:40;-0.80;99.90
44117;DHT22;29781;49.480;8.512;2023-03-01T04:47:05;-0.80;99.90
44117;DHT22;29781;49.480;8.512;2023-03-01T04:49:31;-0.70;99.90
44117;DHT22;29781;49.480;8.512;2023-03-01T04:51:56;-0.70;99.90
44117;DHT22;29781;49.480;8.512;2023-03-01T04:54:23;-0.70;99.90
44117;DHT22;29781;49.480;8.512;2023-03-01T04:56:49;-0.60;99.90
44117;DHT22;29781;49.480;8.512;2023-03-01T04:59:14;-0.60;99.90
44117;DHT22;29781;49.480;8.512;2023-03-01T05:01:39;-0.50;99.90
44117;DHT22;29781;49.480;8.512;2023-03-01T05:04:08;-0.50;99.90
44117;DHT22;29781;49.480;8.512;2023-03-01T05:06:37;-0.50;99.90
44117;DHT22;29781;49.480;8.512;2023-03-01T05:09:03;-0.40;99.90
44117;DHT22;29781;49.480;8.512;2023-03-01T05:11:28;-0.50;99.90
44117;DHT22;29781;49.480;8.512;2023-03-01T05:13:58;-0.40;99.90
44117;DHT22;29781;49.480;8.512;2023-03-01T05:16:24;-0.40;99.90
44117;DHT22;29781;49.480;8.512;2023-03-01T05:18:50;-0.40;99.90
44117;DHT22;29781;49.480;8.512;2023-03-01T05:21:16;-0.40;99.90
44117;DHT22;29781;49.480;8.512;2023-03-01T05:23:41;-0.40;99.90
44117;DHT22;29781;49.480;8.512;2023-03-01T05:26:07;-0.40;99.90
44117;DHT22;29781;49.480;8.512;2023-03-01T05:28:33;-0.40;99.90
44117;DHT22;29781;49.480;8.512;2023-03-01T05:31:00;-0.40;99.90
44117;DHT22;29781;49.480;8.512;2023-03-01T05:33:25;-0.40;99.90
44117;DHT22;29781;49.480;8.512;2023-03-01T05:35:51;-0.40;99.90
44117;DHT22;29781;49.480;8.512;2023-03-01T05:38:17;-0.30;99.90
44117;DHT22;29781;49.480;8.512;2023-03-01T05:40:44;-0.30;99.90
44117;DHT22;29781;49.480;8.512;2023-03-01T05:43:09;-0.30;99.90
44117;DHT22;29781;49.480;8.512;2023-03-01T05:45:36;-0.30;99.90
44117;DHT22;29781;49.480;8.512;2023-03-01T05:48:01;-0.30;99.90
44117;DHT22;29781;49.480;8.512;2023-03-01T05:50:29;-0.20;99.90
44117;DHT22;29781;49.480;8.512;2023-03-01T05:52:58;-0.10;99.90
44117;DHT22;29781;49.480;8.512;2023-03-01T05:55:24;-0.10;99.90
44117;DHT22;29781;49.480;8.512;2023-03-01T05:57:49;-0.10;99.90
44117;DHT22;29781;49.480;8.512;2023-03-01T06:00:16;-0.10;99.90
44117;DHT22;29781;49.480;8.512;2023-03-01T06:02:41;-0.10;99.90
44117;DHT22;29781;49.480;8.512;2023-03-01T06:05:08;-0.10;99.90
44117;DHT22;29781;49.480;8.512;2023-03-01T06:07:34;-0.10;99.90
44117;DHT22;29781;49.480;8.512;2023-03-01T06:10:00;-0.10;99.90
44117;DHT22;29781;49.480;8.512;2023-03-01T06:12:26;0.00;99.90
44117;DHT22;29781;49.480;8.512;2023-03-01T06:14:51;0.00;99.90
44117;DHT22;29781;49.480;8.512;2023-03-01T06:17:16;0.00;99.90
44117;DHT22;29781;49.480;8.512;2023-03-01T06:19:42;0.00;99.90
44117;DHT22;29781;49.480;8.512;2023-03-01T06:22:07;0.10;99.90
44117;DHT22;29781;49.480;8.512;2023-03-01T06:24:33;0.30;99.90
44117;DHT22;29781;49.480;8.512;2023-03-01T06:26:59;0.50;99.90
44117;DHT22;29781;49.480;8.512;2023-03-01T06:29:24;0.40;99.90
44117;DHT22;29781;49.480;8.512;2023-03-01T06:31:49;0.30;99.90
44117;DHT22;29781;49.480;8.512;2023-03-01T06:34:15;0.30;99.90
44117;DHT22;29781;49.480;8.512;2023-03-01T06:36:40;0.20;99.90
44117;DHT22;29781;49.480;8.512;2023-03-01T06:39:06;0.20;99.90
44117;DHT22;29781;49.480;8.512;2023-03-01T06:41:32;0.20;99.90
44117;DHT22;29781;49.480;8.512;2023-03-01T06:43:58;0.30;99.90
44117;DHT22;29781;49.480;8.512;2023-03-01T06:46:24;0.30;99.90
44117;DHT22;29781;49.480;8.512;2023-03-01T06:48:49;0.30;99.90
44117;DHT22;29781;49.480;8.512;2023-03-01T06:51:14;0.50;99.90
44117;DHT22;29781;49.480;8.512;2023-03-01T06:53:40;0.50;99.90
44117;DHT22;29781;49.480;8.512;2023-03-01T06:56:05;0.40;99.90
44117;DHT22;29781;49.480;8.512;2023-03-01T06:58:31;0.50;99.90
44117;DHT22;29781;49.480;8.512;2023-03-01T07:00:56;0.60;99.90
44117;DHT22;29781;49.480;8.512;2023-03-01T07:03:22;0.70;99.90
44117;DHT22;29781;49.480;8.512;2023-03-01T07:05:50;0.80;99.90
44117;DHT22;29781;49.480;8.512;2023-03-01T07:08:19;0.80;99.90
44117;DHT22;29781;49.480;8.512;2023-03-01T07:10:45;1.00;99.90
44117;DHT22;29781;49.480;8.512;2023-03-01T07:13:10;1.00;99.90
44117;DHT22;29781;49.480;8.512;2023-03-01T07:15:35;1.00;99.90
44117;DHT22;29781;49.480;8.512;2023-03-01T07:18:01;1.00;99.90
44117;DHT22;29781;49.480;8.512;2023-03-01T07:20:26;1.00;99.90
44117;DHT22;29781;49.480;8.512;2023-03-01T07:22:52;1.10;99.90
44117;DHT22;29781;49.480;8.512;2023-03-01T07:25:18;1.10;99.90
44117;DHT22;29781;49.480;8.512;2023-03-01T07:27:43;1.20;99.90
44117;DHT22;29781;49.480;8.512;2023-03-01T07:30:09;1.30;99.90
44117;DHT22;29781;49.480;8.512;2023-03-01T07:32:34;1.20;99.90
44117;DHT22;29781;49.480;8.512;2023-03-01T07:35:00;1.20;99.90
44117;DHT22;29781;49.480;8.512;2023-03-01T07:37:26;1.20;99.90
44117;DHT22;29781;49.480;8.512;2023-03-01T07:39:51;1.20;99.90
44117;DHT22;29781;49.480;8.512;2023-03-01T07:42:17;1.20;99.90
44117;DHT22;29781;49.480;8.512;2023-03-01T07:44:42;1.20;99.90
44117;DHT22;29781;49.480;8.512;2023-03-01T07:47:07;1.20;99.90
44117;DHT22;29781;49.480;8.512;2023-03-01T07:49:33;1.30;99.90
44117;DHT22;29781;49.480;8.512;2023-03-01T07:51:59;1.40;99.90
44117;DHT22;29781;49.480;8.512;2023-03-01T07:54:24;1.50;99.90
44117;DHT22;29781;49.480;8.512;2023-03-01T07:56:51;1.50;99.90
44117;DHT22;29781;49.480;8.512;2023-03-01T07:59:17;1.40;99.90
44117;DHT22;29781;49.480;8.512;2023-03-01T08:01:42;1.40;99.90
44117;DHT22;29781;49.480;8.512;2023-03-01T08:04:08;1.50;99.90
44117;DHT22;29781;49.480;8.512;2023-03-01T08:06:33;1.50;99.90
44117;DHT22;29781;49.480;8.512;2023-03-01T08:08:59;1.60;99.90
44117;DHT22;29781;49.480;8.512;2023-03-01T08:11:24;1.60;99.90
44117;DHT22;29781;49.480;8.512;2023-03-01T08:13:50;1.70;99.90
44117;DHT22;29781;49.480;8.512;2023-03-01T08:16:15;1.70;99.90
44117;DHT22;29781;49.480;8.512;2023-03-01T08:18:41;1.80;99.90
44117;DHT22;29781;49.480;8.512;2023-03-01T08:21:08;1.80;99.90
44117;DHT22;29781;49.480;8.512;2023-03-01T08:23:33;1.90;99.90
44117;DHT22;29781;49.480;8.512;2023-03-01T08:26:06;2.00;99.90
44117;DHT22;29781;49.480;8.512;2023-03-01T08:28:32;1.90;99.90
44117;DHT22;29781;49.480;8.512;2023-03-01T08:30:57;1.80;99.90
44117;DHT22;29781;49.480;8.512;2023-03-01T08:33:23;2.00;99.90
44117;DHT22;29781;49.480;8.512;2023-03-01T08:35:48;2.00;99.90
44117;DHT22;29781;49.480;8.512;2023-03-01T08:38:14;2.00;99.90
44117;DHT22;29781;49.480;8.512;2023-03-01T08:40:39;1.90;99.90
44117;DHT22;29781;49.480;8.512;2023-03-01T08:43:04;2.10;99.90
44117;DHT22;29781;49.480;8.512;2023-03-01T08:45:30;2.40;99.90
44117;DHT22;29781;49.480;8.512;2023-03-01T08:47:55;2.40;99.90
44117;DHT22;29781;49.480;8.512;2023-03-01T08:50:21;2.60;99.90
44117;DHT22;29781;49.480;8.512;2023-03-01T08:52:47;2.60;99.90
44117;DHT22;29781;49.480;8.512;2023-03-01T08:55:13;2.90;99.90
44117;DHT22;29781;49.480;8.512;2023-03-01T08:57:40;3.00;99.90
44117;DHT22;29781;49.480;8.512;2023-03-01T09:00:05;2.90;99.90
44117;DHT22;29781;49.480;8.512;2023-03-01T09:02:33;2.80;99.90
44117;DHT22;29781;49.480;8.512;2023-03-01T09:04:59;2.80;99.90
44117;DHT22;29781;49.480;8.512;2023-03-01T09:07:25;2.90;99.90
44117;DHT22;29781;49.480;8.512;2023-03-01T09:09:53;2.90;99.90
44117;DHT22;29781;49.480;8.512;2023-03-01T09:12:19;3.00;99.90
44117;DHT22;29781;49.480;8.512;2023-03-01T09:14:45;2.90;99.90
44117;DHT22;29781;49.480;8.512;2023-03-01T09:17:10;3.30;99.90
44117;DHT22;29781;49.480;8.512;2023-03-01T09:19:36;3.30;99.90
44117;DHT22;29781;49.480;8.512;2023-03-01T09:22:02;3.30;99.90
44117;DHT22;29781;49.480;8.512;2023-03-01T09:24:28;3.50;99.90
44117;DHT22;29781;49.480;8.512;2023-03-01T09:26:54;3.30;99.90
44117;DHT22;29781;49.480;8.512;2023-03-01T09:29:21;3.20;99.90
44117;DHT22;29781;49.480;8.512;2023-03-01T09:31:46;3.40;99.90
44117;DHT22;29781;49.480;8.512;2023-03-01T09:34:12;3.30;99.90
44117;DHT22;29781;49.480;8.512;2023-03-01T09:36:40;3.20;99.90
44117;DHT22;29781;49.480;8.512;2023-03-01T09:39:05;3.30;99.90
44117;DHT22;29781;49.480;8.512;2023-03-01T09:41:44;3.40;99.90
44117;DHT22;29781;49.480;8.512;2023-03-01T09:46:56;3.60;99.90
44117;DHT22;29781;49.480;8.512;2023-03-01T09:49:23;3.70;99.90
44117;DHT22;29781;49.480;8.512;2023-03-01T09:51:59;3.50;99.90
44117;DHT22;29781;49.480;8.512;2023-03-01T09:54:26;3.80;99.90
44117;DHT22;29781;49.480;8.512;2023-03-01T09:59:24;4.60;99.90
44117;DHT22;29781;49.480;8.512;2023-03-01T10:01:58;5.40;99.90
44117;DHT22;29781;49.480;8.512;2023-03-01T10:04:45;4.60;99.90
44117;DHT22;29781;49.480;8.512;2023-03-01T10:09:41;4.80;99.90
44117;DHT22;29781;49.480;8.512;2023-03-01T10:12:08;4.70;99.90
44117;DHT22;29781;49.480;8.512;2023-03-01T10:14:36;4.70;99.90
44117;DHT22;29781;49.480;8.512;2023-03-01T10:17:12;4.80;99.90
44117;DHT22;29781;49.480;8.512;2023-03-01T10:19:43;4.80;99.90
44117;DHT22;29781;49.480;8.512;2023-03-01T10:24:35;5.70;99.90
44117;DHT22;29781;49.480;8.512;2023-03-01T10:27:01;5.70;99.90
44117;DHT22;29781;49.480;8.512;2023-03-01T10:29:35;5.60;99.90
44117;DHT22;29781;49.480;8.512;2023-03-01T10:32:03;5.20;99.90
44117;DHT22;29781;49.480;8.512;2023-03-01T10:34:30;6.00;99.90
44117;DHT22;29781;49.480;8.512;2023-03-01T10:36:56;5.80;99.90
44117;DHT22;29781;49.480;8.512;2023-03-01T10:39:23;6.10;99.90
44117;DHT22;29781;49.480;8.512;2023-03-01T10:41:56;5.40;99.90
44117;DHT22;29781;49.480;8.512;2023-03-01T10:44:41;4.70;99.90
44117;DHT22;29781;49.480;8.512;2023-03-01T10:47:12;5.40;99.90
44117;DHT22;29781;49.480;8.512;2023-03-01T10:49:38;6.40;99.90
44117;DHT22;29781;49.480;8.512;2023-03-01T10:52:20;6.10;99.90
44117;DHT22;29781;49.480;8.512;2023-03-01T10:54:53;6.70;99.90
44117;DHT22;29781;49.480;8.512;2023-03-01T10:57:52;6.40;99.90
44117;DHT22;29781;49.480;8.512;2023-03-01T11:00:15;6.30;99.90
44117;DHT22;29781;49.480;8.512;2023-03-01T11:02:42;6.80;99.90
44117;DHT22;29781;49.480;8.512;2023-03-01T11:07:46;9.40;99.90
44117;DHT22;29781;49.480;8.512;2023-03-01T11:10:15;8.00;99.90
44117;DHT22;29781;49.480;8.512;2023-03-01T11:12:42;7.80;99.90
44117;DHT22;29781;49.480;8.512;2023-03-01T11:15:08;7.40;99.90
44117;DHT22;29781;49.480;8.512;2023-03-01T11:17:44;7.50;99.90
44117;DHT22;29781;49.480;8.512;2023-03-01T11:22:40;6.30;99.90
44117;DHT22;29781;49.480;8.512;2023-03-01T11:25:10;6.20;99.90
44117;DHT22;29781;49.480;8.512;2023-03-01T11:27:39;7.00;99.90
44117;DHT22;29781;49.480;8.512;2023-03-01T11:32:45;7.70;99.90
44117;DHT22;29781;49.480;8.512;2023-03-01T11:35:15;7.60;99.90
44117;DHT22;29781;49.480;8.512;2023-03-01T11:40:28;6.40;99.90
44117;DHT22;29781;49.480;8.512;2023-03-01T11:45:21;6.20;99.90
44117;DHT22;29781;49.480;8.512;2023-03-01T11:50:26;6.60;99.90
44117;DHT22;29781;49.480;8.512;2023-03-01T11:58:07;6.50;99.90
44117;DHT22;29781;49.480;8.512;2023-03-01T12:03:26;7.40;99.90
44117;DHT22;29781;49.480;8.512;2023-03-01T12:06:15;7.80;99.90
44117;DHT22;29781;49.480;8.512;2023-03-01T12:08:47;6.80;99.90
44117;DHT22;29781;49.480;8.512;2023-03-01T12:11:23;7.10;99.90
44117;DHT22;29781;49.480;8.512;2023-03-01T12:14:05;7.60;99.90
44117;DHT22;29781;49.480;8.512;2023-03-01T12:16:37;7.50;99.90
44117;DHT22;29781;49.480;8.512;2023-03-01T12:21:53;6.50;99.90
44117;DHT22;29781;49.480;8.512;2023-03-01T12:34:45;6.80;99.90
44117;DHT22;29781;49.480;8.512;2023-03-01T12:40:26;7.10;99.90
44117;DHT22;29781;49.480;8.512;2023-03-01T12:43:08;7.20;99.90
44117;DHT22;29781;49.480;8.512;2023-03-01T12:45:56;7.70;99.90
44117;DHT22;29781;49.480;8.512;2023-03-01T12:48:27;8.60;99.90
44117;DHT22;29781;49.480;8.512;2023-03-01T12:50:57;7.20;99.90
44117;DHT22;29781;49.480;8.512;2023-03-01T12:53:24;6.90;99.90
44117;DHT22;29781;49.480;8.512;2023-03-01T12:55:51;7.00;99.90
44117;DHT22;29781;49.480;8.512;2023-03-01T12:58:22;6.90;99.90
44117;DHT22;29781;49.480;8.512;2023-03-01T13:01:13;7.10;99.90
44117;DHT22;29781;49.480;8.512;2023-03-01T13:06:29;7.00;99.90
44117;DHT22;29781;49.480;8.512;2023-03-01T13:08:58;7.10;99.90
44117;DHT22;29781;49.480;8.512;2023-03-01T13:11:27;7.00;99.90
44117;DHT22;29781;49.480;8.512;2023-03-01T13:14:04;7.30;99.90
44117;DHT22;29781;49.480;8.512;2023-03-01T13:16:39;7.30;99.90
44117;DHT22;29781;49.480;8.512;2023-03-01T13:19:21;7.00;99.90
44117;DHT22;29781;49.480;8.512;2023-03-01T13:21:47;7.00;99.90
44117;DHT22;29781;49.480;8.512;2023-03-01T13:29:48;7.00;99.90
44117;DHT22;29781;49.480;8.512;2023-03-01T13:32:21;7.30;99.90
44117;DHT22;29781;49.480;8.512;2023-03-01T13:34:48;7.40;99.90
44117;DHT22;29781;49.480;8.512;2023-03-01T13:37:20;7.50;99.90
44117;DHT22;29781;49.480;8.512;2023-03-01T13:39:45;7.60;99.90
44117;DHT22;29781;49.480;8.512;2023-03-01T13:42:29;7.60;99.90
44117;DHT22;29781;49.480;8.512;2023-03-01T13:44:56;7.60;99.90
44117;DHT22;29781;49.480;8.512;2023-03-01T13:47:22;7.40;99.90
44117;DHT22;29781;49.480;8.512;2023-03-01T13:49:52;7.50;99.90
44117;DHT22;29781;49.480;8.512;2023-03-01T13:52:36;7.60;99.90
44117;DHT22;29781;49.480;8.512;2023-03-01T13:57:38;7.50;99.90
44117;DHT22;29781;49.480;8.512;2023-03-01T14:00:05;7.50;99.90
44117;DHT22;29781;49.480;8.512;2023-03-01T14:02:30;7.70;99.90
44117;DHT22;29781;49.480;8.512;2023-03-01T14:04:57;7.70;99.90
44117;DHT22;29781;49.480;8.512;2023-03-01T14:07:23;7.70;99.90
44117;DHT22;29781;49.480;8.512;2023-03-01T14:09:55;7.90;99.90
44117;DHT22;29781;49.480;8.512;2023-03-01T14:12:26;8.00;99.90
44117;DHT22;29781;49.480;8.512;2023-03-01T14:14:57;7.90;99.90
44117;DHT22;29781;49.480;8.512;2023-03-01T14:17:27;7.80;99.90
44117;DHT22;29781;49.480;8.512;2023-03-01T14:19:55;7.80;99.90
44117;DHT22;29781;49.480;8.512;2023-03-01T14:22:28;7.90;99.90
44117;DHT22;29781;49.480;8.512;2023-03-01T14:24:55;8.00;99.90
44117;DHT22;29781;49.480;8.512;2023-03-01T14:27:21;8.10;99.90
44117;DHT22;29781;49.480;8.512;2023-03-01T14:29:58;8.00;99.90
44117;DHT22;29781;49.480;8.512;2023-03-01T14:32:25;7.90;99.90
44117;DHT22;29781;49.480;8.512;2023-03-01T14:34:51;8.00;99.90
44117;DHT22;29781;49.480;8.512;2023-03-01T14:39:42;8.10;99.90
44117;DHT22;29781;49.480;8.512;2023-03-01T14:42:07;8.10;99.90
44117;DHT22;29781;49.480;8.512;2023-03-01T14:44:33;8.20;99.90
44117;DHT22;29781;49.480;8.512;2023-03-01T14:47:02;8.20;99.90
44117;DHT22;29781;49.480;8.512;2023-03-01T14:49:29;8.30;99.90
44117;DHT22;29781;49.480;8.512;2023-03-01T14:51:57;8.40;99.90
44117;DHT22;29781;49.480;8.512;2023-03-01T14:54:24;8.30;99.90
44117;DHT22;29781;49.480;8.512;2023-03-01T14:56:51;8.30;99.90
44117;DHT22;29781;49.480;8.512;2023-03-01T14:59:19;8.30;99.90
44117;DHT22;29781;49.480;8.512;2023-03-01T15:01:45;8.20;99.90
44117;DHT22;29781;49.480;8.512;2023-03-01T15:04:12;8.20;99.90
44117;DHT22;29781;49.480;8.512;2023-03-01T15:06:38;8.20;99.90
44117;DHT22;29781;49.480;8.512;2023-03-01T15:09:03;8.20;99.90
44117;DHT22;29781;49.480;8.512;2023-03-01T15:11:30;8.30;99.90
44117;DHT22;29781;49.480;8.512;2023-03-01T15:13:56;8.30;99.90
44117;DHT22;29781;49.480;8.512;2023-03-01T15:16:26;8.40;99.90
44117;DHT22;29781;49.480;8.512;2023-03-01T15:21:22;8.30;99.90
44117;DHT22;29781;49.480;8.512;2023-03-01T15:23:56;8.40;99.90
44117;DHT22;29781;49.480;8.512;2023-03-01T15:26:28;8.30;99.90
44117;DHT22;29781;49.480;8.512;2023-03-01T15:28:54;8.30;99.90
44117;DHT22;29781;49.480;8.512;2023-03-01T15:31:27;8.40;99.90
44117;DHT22;29781;49.480;8.512;2023-03-01T15:34:07;8.60;99.90
44117;DHT22;29781;49.480;8.512;2023-03-01T15:39:01;8.30;99.90
44117;DHT22;29781;49.480;8.512;2023-03-01T15:41:28;8.30;99.90
44117;DHT22;29781;49.480;8.512;2023-03-01T15:43:56;8.30;99.90
44117;DHT22;29781;49.480;8.512;2023-03-01T15:46:32;8.30;99.90
44117;DHT22;29781;49.480;8.512;2023-03-01T15:49:03;8.30;99.90
44117;DHT22;29781;49.480;8.512;2023-03-01T15:51:31;8.30;99.90
44117;DHT22;29781;49.480;8.512;2023-03-01T15:53:58;8.30;99.90
44117;DHT22;29781;49.480;8.512;2023-03-01T15:56:23;8.30;99.90
44117;DHT22;29781;49.480;8.512;2023-03-01T15:58:49;8.30;99.90
44117;DHT22;29781;49.480;8.512;2023-03-01T16:01:15;8.30;99.90
44117;DHT22;29781;49.480;8.512;2023-03-01T16:03:42;8.30;99.90
44117;DHT22;29781;49.480;8.512;2023-03-01T16:06:08;8.30;99.90
44117;DHT22;29781;49.480;8.512;2023-03-01T16:08:34;8.30;99.90
44117;DHT22;29781;49.480;8.512;2023-03-01T16:11:02;8.30;99.90
44117;DHT22;29781;49.480;8.512;2023-03-01T16:13:30;8.30;99.90
44117;DHT22;29781;49.480;8.512;2023-03-01T16:15:56;8.30;99.90
44117;DHT22;29781;49.480;8.512;2023-03-01T16:18:22;8.30;99.90
44117;DHT22;29781;49.480;8.512;2023-03-01T16:20:47;8.30;99.90
44117;DHT22;29781;49.480;8.512;2023-03-01T16:23:14;8.20;99.90
44117;DHT22;29781;49.480;8.512;2023-03-01T16:25:39;8.20;99.90
44117;DHT22;29781;49.480;8.512;2023-03-01T16:28:05;8.20;99.90
44117;DHT22;29781;49.480;8.512;2023-03-01T16:30:34;8.20;99.90
44117;DHT22;29781;49.480;8.512;2023-03-01T16:33:00;8.20;99.90
44117;DHT22;29781;49.480;8.512;2023-03-01T16:35:26;8.10;99.90
44117;DHT22;29781;49.480;8.512;2023-03-01T16:37:52;8.00;99.90
44117;DHT22;29781;49.480;8.512;2023-03-01T16:40:26;8.00;99.90
44117;DHT22;29781;49.480;8.512;2023-03-01T16:42:53;8.00;99.90
44117;DHT22;29781;49.480;8.512;2023-03-01T16:45:19;7.90;99.90
44117;DHT22;29781;49.480;8.512;2023-03-01T16:47:44;8.00;99.90
44117;DHT22;29781;49.480;8.512;2023-03-01T16:50:10;7.90;99.90
44117;DHT22;29781;49.480;8.512;2023-03-01T16:52:36;8.00;99.90
44117;DHT22;29781;49.480;8.512;2023-03-01T16:55:02;7.90;99.90
44117;DHT22;29781;49.480;8.512;2023-03-01T16:57:29;7.80;99.90
44117;DHT22;29781;49.480;8.512;2023-03-01T16:59:55;7.80;99.90
44117;DHT22;29781;49.480;8.512;2023-03-01T17:02:20;7.70;99.90
44117;DHT22;29781;49.480;8.512;2023-03-01T17:04:52;7.60;99.90